createdAt,value
2022-11-13T00:00:48.413Z,10.09
2022-11-13T00:03:36.514Z,10.01
2022-11-13T00:06:23.728Z,9.98
2022-11-13T00:09:12.555Z,9.97
2022-11-13T00:11:59.575Z,9.92
2022-11-13T00:14:47.445Z,9.96
2022-11-13T00:17:35.485Z,9.94
2022-11-13T00:20:24.029Z,9.94
2022-11-13T00:23:10.989Z,9.94
2022-11-13T00:25:57.597Z,9.97
2022-11-13T00:28:44.982Z,9.96
2022-11-13T00:31:32.063Z,9.90
2022-11-13T00:34:47.204Z,9.81
2022-11-13T00:37:27.046Z,9.71
2022-11-13T00:40:14.174Z,9.70
2022-11-13T00:43:01.093Z,9.66
2022-11-13T00:45:47.823Z,9.61
2022-11-13T00:48:34.524Z,9.51
2022-11-13T00:51:21.492Z,9.44
2022-11-13T00:54:09.675Z,9.39
2022-11-13T00:56:56.513Z,9.34
2022-11-13T00:59:43.111Z,9.33
2022-11-13T01:02:29.849Z,9.25
2022-11-13T01:05:16.907Z,9.13
2022-11-13T01:08:05.193Z,9.09
2022-11-13T01:10:53.951Z,9.09
2022-11-13T01:13:41.726Z,9.07
2022-11-13T01:16:29.520Z,9.01
2022-11-13T01:19:18.420Z,8.99
2022-11-13T01:22:05.316Z,8.89
2022-11-13T01:24:52.006Z,8.85
2022-11-13T01:27:40.330Z,8.87
2022-11-13T01:30:27.404Z,8.89
2022-11-13T01:33:15.266Z,8.87
2022-11-13T01:36:04.158Z,8.90
2022-11-13T01:38:51.811Z,8.84
2022-11-13T01:41:38.895Z,9.02
2022-11-13T01:44:27.459Z,9.00
2022-11-13T01:47:15.402Z,9.00
2022-11-13T01:50:03.497Z,8.96
2022-11-13T01:52:50.401Z,8.89
2022-11-13T01:55:37.756Z,8.84
2022-11-13T01:58:24.983Z,8.74
2022-11-13T02:01:13.653Z,8.70
2022-11-13T02:04:00.596Z,8.67
2022-11-13T02:06:52.628Z,8.66
2022-11-13T02:09:42.306Z,8.70
2022-11-13T02:12:34.864Z,8.78
2022-11-13T02:15:25.884Z,8.77
2022-11-13T02:18:16.858Z,8.77
2022-11-13T02:21:11.644Z,8.84
2022-11-13T02:24:05.856Z,8.87
2022-11-13T02:26:57.868Z,8.80
2022-11-13T02:29:45.562Z,8.79
2022-11-13T02:32:33.500Z,8.79
2022-11-13T02:35:25.151Z,8.80
2022-11-13T02:38:12.039Z,8.82
2022-11-13T02:40:58.822Z,8.81
2022-11-13T02:43:47.590Z,8.81
2022-11-13T02:46:35.962Z,8.73
2022-11-13T02:49:22.960Z,8.75
2022-11-13T02:52:09.784Z,8.76
2022-11-13T02:54:56.755Z,8.77
2022-11-13T02:57:45.087Z,8.81
2022-11-13T03:00:33.520Z,8.83
2022-11-13T03:03:41.033Z,8.83
2022-11-13T03:06:27.352Z,8.79
2022-11-13T03:09:14.215Z,8.77
2022-11-13T03:12:00.957Z,8.78
2022-11-13T03:14:47.878Z,8.79
2022-11-13T03:17:36.581Z,8.83
2022-11-13T03:20:23.608Z,8.82
2022-11-13T03:23:11.326Z,8.72
2022-11-13T03:25:58.381Z,8.83
2022-11-13T03:28:45.180Z,8.82
2022-11-13T03:31:31.963Z,8.85
2022-11-13T03:34:20.742Z,8.89
2022-11-13T03:37:07.795Z,8.88
2022-11-13T03:39:54.954Z,8.87
2022-11-13T03:42:42.362Z,8.89
2022-11-13T03:45:29.018Z,8.87
2022-11-13T03:48:17.865Z,8.91
2022-11-13T03:51:06.769Z,8.93
2022-11-13T03:53:53.538Z,8.89
2022-11-13T03:56:40.766Z,8.11
2022-11-13T03:59:27.865Z,8.83
2022-11-13T04:02:15.036Z,8.81
2022-11-13T04:05:02.089Z,8.85
2022-11-13T04:07:51.276Z,8.91
2022-11-13T04:10:38.172Z,8.87
2022-11-13T04:13:25.653Z,8.93
2022-11-13T04:16:13.657Z,9.00
2022-11-13T04:19:01.005Z,9.06
2022-11-13T04:21:47.772Z,9.07
2022-11-13T04:24:36.053Z,9.04
2022-11-13T04:27:23.305Z,9.07
2022-11-13T04:30:11.453Z,8.73
2022-11-13T04:32:58.465Z,9.14
2022-11-13T04:35:46.069Z,9.11
2022-11-13T04:38:34.062Z,9.19
2022-11-13T04:41:39.555Z,9.19
2022-11-13T04:44:27.231Z,9.16
2022-11-13T04:47:15.481Z,9.16
2022-11-13T04:50:02.533Z,9.16
2022-11-13T04:52:49.607Z,9.18
2022-11-13T04:55:36.761Z,9.21
2022-11-13T04:58:25.114Z,9.19
2022-11-13T05:01:12.154Z,9.15
2022-11-13T05:03:59.916Z,9.19
2022-11-13T05:06:47.285Z,9.22
2022-11-13T05:09:34.519Z,9.26
2022-11-13T05:12:22.770Z,9.28
2022-11-13T05:15:12.253Z,9.34
2022-11-13T05:17:59.669Z,9.31
2022-11-13T05:20:46.255Z,9.22
2022-11-13T05:23:34.328Z,9.28
2022-11-13T05:26:21.154Z,9.05
2022-11-13T05:29:08.392Z,9.27
2022-11-13T05:31:57.019Z,9.29
2022-11-13T05:34:44.443Z,9.32
2022-11-13T05:37:31.851Z,9.35
2022-11-13T05:40:21.573Z,9.39
2022-11-13T05:43:08.739Z,9.42
2022-11-13T05:46:01.316Z,9.43
2022-11-13T05:48:54.609Z,9.40
2022-11-13T05:51:41.551Z,9.40
2022-11-13T05:54:28.443Z,9.40
2022-11-13T05:57:15.801Z,9.35
2022-11-13T06:00:03.218Z,9.34
2022-11-13T06:02:50.654Z,9.37
2022-11-13T06:05:39.234Z,9.42
2022-11-13T06:08:27.363Z,9.45
2022-11-13T06:11:16.825Z,9.35
2022-11-13T06:14:04.002Z,9.42
2022-11-13T06:16:52.074Z,9.46
2022-11-13T06:19:38.685Z,9.43
2022-11-13T06:22:29.477Z,9.44
2022-11-13T06:25:16.953Z,9.40
2022-11-13T06:28:04.326Z,9.41
2022-11-13T06:30:50.885Z,9.42
2022-11-13T06:33:38.723Z,9.37
2022-11-13T06:36:27.845Z,9.39
2022-11-13T06:39:16.585Z,9.42
2022-11-13T06:42:04.351Z,9.43
2022-11-13T06:44:51.644Z,9.43
2022-11-13T06:47:39.381Z,9.43
2022-11-13T06:50:26.754Z,9.41
2022-11-13T06:53:14.761Z,9.42
2022-11-13T06:56:06.346Z,9.38
2022-11-13T06:58:55.616Z,9.34
2022-11-13T07:01:43.153Z,9.36
2022-11-13T07:04:30.244Z,9.40
2022-11-13T07:07:17.786Z,9.43
2022-11-13T07:10:07.413Z,9.46
2022-11-13T07:13:00.220Z,9.50
2022-11-13T07:15:47.364Z,9.47
2022-11-13T07:18:34.759Z,9.49
2022-11-13T07:21:22.998Z,9.52
2022-11-13T07:24:15.578Z,9.59
2022-11-13T07:27:03.756Z,9.64
2022-11-13T07:29:52.131Z,9.68
2022-11-13T07:32:39.632Z,9.69
2022-11-13T07:35:29.521Z,9.73
2022-11-13T07:38:16.669Z,9.73
2022-11-13T07:41:04.131Z,9.75
2022-11-13T07:43:51.010Z,9.80
2022-11-13T07:46:39.481Z,9.89
2022-11-13T07:49:26.523Z,9.90
2022-11-13T07:52:14.012Z,9.92
2022-11-13T07:55:01.556Z,9.95
2022-11-13T07:57:48.978Z,9.93
2022-11-13T08:00:36.726Z,10.03
2022-11-13T08:03:25.453Z,10.10
2022-11-13T08:06:14.350Z,10.17
2022-11-13T08:09:02.881Z,10.25
2022-11-13T08:11:49.803Z,10.31
2022-11-13T08:14:37.224Z,10.37
2022-11-13T08:17:26.440Z,10.40
2022-11-13T08:20:15.338Z,10.44
2022-11-13T08:23:06.074Z,10.49
2022-11-13T08:25:53.081Z,10.58
2022-11-13T08:28:40.811Z,10.65
2022-11-13T08:31:28.414Z,10.71
2022-11-13T08:34:16.486Z,10.78
2022-11-13T08:37:06.264Z,10.84
2022-11-13T08:39:53.577Z,10.93
2022-11-13T08:42:41.566Z,11.02
2022-11-13T08:45:30.953Z,11.06
2022-11-13T08:48:19.022Z,11.14
2022-11-13T08:51:07.444Z,11.20
2022-11-13T08:53:56.104Z,11.25
2022-11-13T08:56:43.909Z,11.29
2022-11-13T08:59:32.511Z,11.36
2022-11-13T09:02:19.581Z,11.43
2022-11-13T09:05:09.238Z,11.53
2022-11-13T09:07:58.961Z,11.59
2022-11-13T09:10:48.821Z,11.66
2022-11-13T09:13:43.981Z,11.70
2022-11-13T09:16:33.906Z,11.76
2022-11-13T09:19:21.312Z,11.82
2022-11-13T09:22:11.936Z,11.88
2022-11-13T09:24:58.838Z,11.92
2022-11-13T09:27:56.009Z,11.95
2022-11-13T09:30:43.488Z,11.97
2022-11-13T09:33:30.520Z,12.02
2022-11-13T09:36:18.248Z,12.10
2022-11-13T09:39:07.838Z,12.16
2022-11-13T09:42:00.492Z,12.23
2022-11-13T09:44:52.820Z,12.30
2022-11-13T09:47:44.651Z,12.38
2022-11-13T09:50:38.650Z,12.33
2022-11-13T09:53:27.555Z,12.50
2022-11-13T09:56:35.788Z,12.59
2022-11-13T09:59:30.299Z,12.66
2022-11-13T10:02:26.747Z,12.74
2022-11-13T10:05:22.611Z,12.83
2022-11-13T10:08:20.721Z,12.91
2022-11-13T10:11:17.529Z,13.00
2022-11-13T10:14:14.461Z,13.09
2022-11-13T10:17:09.109Z,13.18
2022-11-13T10:20:01.280Z,13.27
2022-11-13T10:22:52.276Z,13.35
2022-11-13T10:25:43.103Z,13.44
2022-11-13T10:31:47.114Z,13.62
2022-11-13T10:34:35.947Z,13.69
2022-11-13T10:37:41.728Z,13.77
2022-11-13T10:40:30.389Z,13.83
2022-11-13T10:43:20.119Z,13.90
2022-11-13T10:46:09.573Z,13.96
2022-11-13T10:48:57.746Z,13.76
2022-11-13T10:51:45.437Z,14.08
2022-11-13T10:54:34.764Z,14.04
2022-11-13T10:57:30.596Z,14.16
2022-11-13T11:00:23.013Z,14.17
2022-11-13T11:03:18.748Z,14.20
2022-11-13T11:06:06.645Z,14.24
2022-11-13T11:08:53.497Z,14.31
2022-11-13T11:12:04.850Z,14.37
2022-11-13T11:15:22.016Z,14.39
2022-11-13T11:18:23.828Z,14.40
2022-11-13T11:21:19.374Z,14.46
2022-11-13T11:24:15.470Z,14.51
2022-11-13T11:27:09.606Z,14.62
2022-11-13T11:30:06.061Z,14.67
2022-11-13T11:32:59.118Z,14.69
2022-11-13T11:35:53.675Z,14.74
2022-11-13T11:38:50.286Z,14.73
2022-11-13T11:41:45.249Z,14.77
2022-11-13T11:44:59.472Z,14.81
2022-11-13T11:47:53.436Z,14.81
2022-11-13T11:50:54.298Z,14.83
2022-11-13T11:54:01.161Z,14.89
2022-11-13T11:56:57.648Z,14.91
2022-11-13T12:00:01.786Z,14.94
2022-11-13T12:03:24.918Z,14.98
2022-11-13T12:06:25.284Z,15.00
2022-11-13T12:09:24.667Z,15.05
2022-11-13T12:12:23.830Z,15.11
2022-11-13T12:15:22.228Z,15.14
2022-11-13T12:18:17.152Z,15.21
2022-11-13T12:21:25.233Z,15.27
2022-11-13T12:24:37.565Z,15.31
2022-11-13T12:27:33.348Z,15.36
2022-11-13T12:30:33.785Z,15.46
2022-11-13T12:33:35.603Z,15.55
2022-11-13T12:36:25.067Z,15.64
2022-11-13T12:39:31.381Z,15.74
2022-11-13T12:42:24.257Z,15.80
2022-11-13T12:45:23.423Z,15.87
2022-11-13T12:48:33.925Z,15.71
2022-11-13T12:51:23.030Z,15.98
2022-11-13T12:54:11.914Z,16.04
2022-11-13T12:57:52.134Z,16.10
2022-11-13T13:00:41.371Z,16.13
2022-11-13T13:03:45.371Z,16.20
2022-11-13T13:06:47.852Z,16.18
2022-11-13T13:09:56.798Z,16.19
2022-11-13T13:12:58.346Z,16.18
2022-11-13T13:15:49.180Z,16.19
2022-11-13T13:18:39.149Z,16.22
2022-11-13T13:21:29.228Z,16.21
2022-11-13T13:24:34.199Z,16.04
2022-11-13T13:27:36.325Z,16.18
2022-11-13T13:30:26.670Z,16.16
2022-11-13T13:33:27.277Z,16.16
2022-11-13T13:36:28.766Z,16.15
2022-11-13T13:39:31.106Z,16.16
2022-11-13T13:42:38.285Z,16.17
2022-11-13T13:45:36.656Z,16.18
2022-11-13T13:48:28.570Z,16.19
2022-11-13T13:51:28.969Z,16.21
2022-11-13T13:54:21.184Z,16.04
2022-11-13T13:57:14.777Z,16.19
2022-11-13T14:00:03.581Z,16.19
2022-11-13T14:02:52.250Z,16.22
2022-11-13T14:05:39.225Z,16.24
2022-11-13T14:08:30.719Z,16.28
2022-11-13T14:11:20.549Z,16.26
2022-11-13T14:14:17.048Z,16.27
2022-11-13T14:17:04.623Z,16.24
2022-11-13T14:19:52.205Z,16.23
2022-11-13T14:22:45.044Z,16.21
2022-11-13T14:25:34.631Z,16.18
2022-11-13T14:28:23.804Z,16.17
2022-11-13T14:31:14.274Z,16.17
2022-11-13T14:34:11.305Z,16.14
2022-11-13T14:37:19.106Z,15.90
2022-11-13T14:40:15.477Z,16.01
2022-11-13T14:43:08.972Z,16.01
2022-11-13T14:46:00.624Z,15.98
2022-11-13T14:48:55.366Z,15.97
2022-11-13T14:51:55.388Z,15.94
2022-11-13T14:55:12.913Z,15.93
2022-11-13T14:57:53.079Z,15.73
2022-11-13T15:00:41.374Z,15.90
2022-11-13T15:03:56.650Z,15.87
2022-11-13T15:06:44.614Z,15.81
2022-11-13T15:09:35.698Z,15.80
2022-11-13T17:41:47.865Z,13.49
2022-11-13T17:44:37.477Z,12.76
2022-11-13T17:47:24.616Z,13.43
2022-11-13T17:50:11.993Z,13.56
2022-11-13T17:52:59.225Z,12.81
2022-11-13T17:55:54.485Z,13.64
2022-11-13T17:58:42.967Z,13.12
2022-11-13T18:01:33.891Z,13.42
2022-11-13T18:04:21.463Z,13.33
2022-11-13T18:07:08.550Z,13.28
2022-11-13T18:09:55.731Z,13.62
2022-11-13T18:12:42.602Z,13.54
2022-11-13T18:15:29.484Z,13.71
2022-11-13T18:18:18.172Z,13.74
2022-11-13T18:21:22.381Z,13.67
2022-11-13T18:24:15.094Z,13.53
2022-11-13T18:27:02.382Z,13.61
2022-11-13T18:29:49.158Z,13.49
2022-11-13T18:32:36.110Z,13.63
2022-11-13T18:35:24.782Z,13.65
2022-11-13T18:38:11.566Z,13.30
2022-11-13T18:41:03.318Z,13.29
2022-11-13T18:43:52.078Z,13.43
2022-11-13T18:46:40.221Z,13.30
2022-11-13T18:49:26.892Z,13.35
2022-11-13T18:52:15.836Z,13.41
2022-11-13T18:55:03.755Z,12.40
2022-11-13T18:57:50.532Z,12.64
2022-11-13T19:00:37.733Z,13.10
2022-11-13T19:03:25.518Z,13.28
2022-11-13T19:06:15.414Z,12.99
2022-11-13T19:09:06.009Z,13.26
2022-11-13T19:11:55.547Z,12.55
2022-11-13T19:14:42.446Z,13.19
2022-11-13T19:17:29.363Z,12.97
2022-11-13T19:20:18.733Z,13.07
2022-11-13T19:23:09.160Z,13.21
2022-11-13T19:25:57.878Z,12.99
2022-11-13T19:28:47.927Z,13.26
2022-11-13T19:31:35.493Z,13.24
2022-11-13T19:34:22.298Z,13.07
2022-11-13T19:37:11.204Z,12.93
2022-11-13T19:40:00.686Z,13.13
2022-11-13T19:42:49.053Z,12.99
2022-11-13T19:45:37.173Z,13.02
2022-11-13T19:48:32.577Z,12.77
2022-11-13T19:51:24.208Z,12.86
2022-11-13T19:54:20.901Z,12.97
2022-11-13T19:57:08.067Z,12.13
2022-11-13T19:59:56.518Z,12.88
2022-11-13T20:02:43.804Z,12.73
2022-11-13T20:05:30.752Z,12.89
2022-11-13T20:08:18.905Z,12.87
2022-11-13T20:11:07.515Z,12.73
2022-11-13T20:13:54.815Z,12.77
2022-11-13T20:16:43.251Z,11.71
2022-11-13T20:19:30.703Z,12.68
2022-11-13T20:22:18.286Z,12.31
2022-11-13T20:25:05.447Z,12.53
2022-11-13T20:27:52.640Z,12.51
2022-11-13T20:30:43.463Z,11.71
2022-11-13T20:33:33.526Z,12.40
2022-11-13T20:36:21.378Z,12.29
2022-11-13T20:39:09.563Z,12.44
2022-11-13T20:41:56.498Z,12.42
2022-11-13T20:44:43.294Z,12.42
2022-11-13T20:47:30.879Z,12.46
2022-11-13T20:50:20.830Z,12.31
2022-11-13T20:53:08.236Z,12.35
2022-11-13T20:55:56.223Z,12.29
2022-11-13T20:58:44.353Z,12.25
2022-11-13T21:01:37.223Z,12.32
2022-11-13T21:04:24.232Z,12.20
2022-11-13T21:07:13.039Z,12.11
2022-11-13T21:10:00.518Z,12.43
2022-11-13T21:12:47.543Z,12.34
2022-11-13T21:15:34.298Z,12.17
2022-11-13T21:18:22.206Z,12.37
2022-11-13T21:21:10.443Z,12.30
2022-11-13T21:23:59.750Z,12.36
2022-11-13T21:26:49.650Z,12.33
2022-11-13T21:29:37.184Z,12.19
2022-11-13T21:32:24.112Z,12.26
2022-11-13T21:35:11.219Z,12.13
2022-11-13T21:37:58.024Z,12.25
2022-11-13T21:41:06.488Z,12.28
2022-11-13T21:43:58.427Z,11.64
2022-11-13T21:46:45.912Z,12.06
2022-11-13T21:49:32.720Z,11.58
2022-11-13T21:52:19.613Z,11.97
2022-11-13T21:55:07.298Z,12.12
2022-11-13T21:57:55.660Z,12.09
2022-11-13T22:00:42.489Z,9.63
2022-11-13T22:03:30.041Z,12.07
2022-11-13T22:06:20.269Z,11.75
2022-11-13T22:09:08.830Z,12.06
2022-11-13T22:11:55.855Z,12.02
2022-11-13T22:14:44.310Z,11.94
2022-11-13T22:17:31.216Z,11.33
2022-11-13T22:20:18.097Z,11.71
2022-11-13T22:23:06.570Z,11.06
2022-11-13T22:26:02.231Z,11.96
2022-11-13T22:28:50.344Z,11.71
2022-11-13T22:31:39.067Z,11.75
2022-11-13T22:34:27.113Z,11.76
2022-11-13T22:37:13.978Z,11.92
2022-11-13T22:40:00.730Z,11.92
2022-11-13T22:42:47.913Z,11.80
2022-11-13T22:45:34.978Z,11.04
2022-11-13T22:48:23.126Z,11.13
2022-11-13T22:51:13.472Z,11.75
2022-11-13T22:54:02.365Z,11.59
2022-11-13T22:56:49.521Z,11.70
2022-11-13T22:59:36.415Z,11.49
2022-11-13T23:02:24.833Z,11.61
2022-11-13T23:05:13.016Z,11.47
2022-11-13T23:08:00.068Z,11.46
2022-11-13T23:10:53.722Z,11.57
2022-11-13T23:13:42.571Z,11.27
2022-11-13T23:16:30.460Z,11.52
2022-11-13T23:19:17.562Z,11.48
2022-11-13T23:22:06.048Z,11.39
2022-11-13T23:24:53.856Z,10.99
2022-11-13T23:27:40.557Z,11.46
2022-11-13T23:30:27.671Z,11.46
2022-11-13T23:33:14.623Z,11.43
2022-11-13T23:36:02.073Z,11.46
2022-11-13T23:38:50.363Z,11.48
2022-11-13T23:41:37.319Z,11.49
2022-11-13T23:44:25.742Z,9.72
2022-11-13T23:47:12.731Z,11.06
2022-11-13T23:50:00.729Z,11.15
2022-11-13T23:53:22.288Z,11.43
2022-11-13T23:56:12.523Z,11.17
2022-11-13T23:59:07.858Z,11.04
